createdAt,value
2018-12-20T00:02:18.634Z,7.40
2018-12-20T00:07:13.746Z,7.40
2018-12-20T00:12:08.822Z,7.30
2018-12-20T00:18:10.180Z,7.30
2018-12-20T00:23:05.718Z,7.40
2018-12-20T00:28:00.764Z,7.50
2018-12-20T00:32:56.207Z,7.60
2018-12-20T00:37:51.244Z,7.80
2018-12-20T00:42:46.287Z,7.90
2018-12-20T00:47:41.468Z,8.00
2018-12-20T00:52:36.515Z,8.10
2018-12-20T00:57:31.385Z,8.20
2018-12-20T01:02:26.766Z,8.20
2018-12-20T01:07:21.601Z,8.30
2018-12-20T01:12:16.626Z,8.30
2018-12-20T01:17:12.175Z,8.30
2018-12-20T01:22:08.136Z,8.30
2018-12-20T01:27:03.497Z,8.40
2018-12-20T01:32:01.199Z,8.30
2018-12-20T01:36:56.611Z,8.30
2018-12-20T01:41:51.399Z,8.30
2018-12-20T01:46:46.475Z,8.20
2018-12-20T01:51:41.727Z,8.20
2018-12-20T01:56:37.496Z,8.10
2018-12-20T02:01:32.812Z,8.10
2018-12-20T02:06:27.815Z,8.10
2018-12-20T02:11:24.048Z,8.10
2018-12-20T02:16:18.777Z,8.10
2018-12-20T02:21:13.794Z,8.20
2018-12-20T02:26:08.737Z,8.10
2018-12-20T02:31:03.565Z,8.20
2018-12-20T02:35:58.577Z,8.20
2018-12-20T02:40:53.528Z,8.10
2018-12-20T02:45:48.580Z,8.10
2018-12-20T02:50:43.735Z,8.00
2018-12-20T02:55:38.784Z,8.10
2018-12-20T03:00:33.957Z,8.10
2018-12-20T03:05:28.960Z,8.20
2018-12-20T03:10:23.819Z,8.20
2018-12-20T03:15:20.055Z,8.20
2018-12-20T03:20:15.620Z,8.20
2018-12-20T03:25:10.768Z,8.20
2018-12-20T03:30:06.338Z,8.20
2018-12-20T03:35:01.289Z,8.20
2018-12-20T03:39:56.879Z,8.20
2018-12-20T03:44:51.983Z,8.20
2018-12-20T03:49:46.998Z,8.20
2018-12-20T03:54:41.914Z,8.20
2018-12-20T03:59:36.959Z,8.20
2018-12-20T04:04:31.946Z,8.20
2018-12-20T04:09:27.004Z,8.30
2018-12-20T04:14:21.901Z,8.30
2018-12-20T04:19:19.505Z,8.30
2018-12-20T04:24:14.552Z,8.20
2018-12-20T04:29:09.530Z,8.30
2018-12-20T04:34:04.515Z,8.30
2018-12-20T04:38:59.611Z,8.30
2018-12-20T04:43:54.477Z,8.40
2018-12-20T04:48:49.462Z,8.40
2018-12-20T04:53:44.346Z,8.40
2018-12-20T04:58:39.010Z,8.40
2018-12-20T05:03:33.738Z,8.40
2018-12-20T05:08:28.689Z,8.40
2018-12-20T05:13:23.666Z,8.50
2018-12-20T05:18:18.560Z,8.40
2018-12-20T05:23:13.398Z,8.50
2018-12-20T05:28:08.469Z,8.50
2018-12-20T05:33:03.230Z,8.50
2018-12-20T05:37:58.031Z,8.40
2018-12-20T05:42:53.079Z,8.30
2018-12-20T05:47:48.060Z,8.10
2018-12-20T05:52:42.982Z,8.00
2018-12-20T05:57:37.708Z,7.90
2018-12-20T06:02:32.393Z,7.90
2018-12-20T06:07:27.180Z,7.80
2018-12-20T06:12:22.386Z,7.80
2018-12-20T06:17:17.570Z,7.70
2018-12-20T06:22:12.476Z,7.70
2018-12-20T06:27:07.489Z,7.60
2018-12-20T06:32:02.189Z,7.60
2018-12-20T06:36:56.897Z,7.60
2018-12-20T06:41:51.964Z,7.60
2018-12-20T06:46:51.247Z,7.60
2018-12-20T06:51:45.891Z,7.50
2018-12-20T06:56:40.738Z,7.50
2018-12-20T07:01:35.422Z,7.40
2018-12-20T07:06:30.150Z,7.40
2018-12-20T07:11:25.106Z,7.40
2018-12-20T07:16:20.095Z,7.30
2018-12-20T07:21:14.959Z,7.30
2018-12-20T07:26:09.679Z,7.40
2018-12-20T07:31:04.467Z,7.50
2018-12-20T07:35:59.202Z,7.60
2018-12-20T07:40:53.962Z,7.60
2018-12-20T07:45:48.598Z,7.60
2018-12-20T07:50:43.372Z,7.70
2018-12-20T07:55:38.041Z,7.80
2018-12-20T08:00:35.748Z,7.80
2018-12-20T08:05:30.501Z,7.90
2018-12-20T08:10:25.183Z,7.90
2018-12-20T08:15:19.916Z,8.00
2018-12-20T08:20:14.591Z,8.10
2018-12-20T08:25:09.269Z,8.20
2018-12-20T08:30:04.998Z,8.20
2018-12-20T08:34:59.768Z,8.30
2018-12-20T08:39:54.543Z,8.40
2018-12-20T08:44:49.282Z,8.50
2018-12-20T08:49:44.088Z,8.50
2018-12-20T08:54:38.761Z,8.60
2018-12-20T08:59:33.483Z,8.70
2018-12-20T09:04:28.147Z,8.70
2018-12-20T09:09:22.820Z,8.80
2018-12-20T09:14:17.460Z,8.80
2018-12-20T09:19:12.327Z,9.00
2018-12-20T09:24:07.030Z,9.00
2018-12-20T09:29:01.789Z,9.00
2018-12-20T09:33:56.470Z,9.00
2018-12-20T09:38:51.153Z,9.10
2018-12-20T09:43:45.839Z,9.10
2018-12-20T09:48:40.510Z,9.10
2018-12-20T09:53:35.198Z,9.00
2018-12-20T09:58:29.857Z,9.10
2018-12-20T10:03:25.200Z,9.10
2018-12-20T10:08:20.178Z,9.20
2018-12-20T10:13:14.858Z,9.30
2018-12-20T10:18:09.512Z,9.40
2018-12-20T10:23:04.216Z,9.50
2018-12-20T10:27:58.899Z,9.60
2018-12-20T10:32:53.595Z,9.70
2018-12-20T10:37:48.398Z,9.80
2018-12-20T10:42:43.066Z,9.90
2018-12-20T10:47:37.731Z,9.90
2018-12-20T10:52:32.396Z,10.00
2018-12-20T10:57:27.502Z,10.10
2018-12-20T11:02:27.356Z,10.20
2018-12-20T11:07:27.158Z,10.30
2018-12-20T11:12:26.845Z,10.40
2018-12-20T11:17:21.594Z,10.40
2018-12-20T11:22:16.290Z,10.30
2018-12-20T11:27:11.030Z,10.30
2018-12-20T11:32:05.727Z,10.50
2018-12-20T11:37:00.431Z,10.60
2018-12-20T11:41:55.103Z,10.80
2018-12-20T11:46:49.852Z,11.00
2018-12-20T11:51:44.647Z,11.20
2018-12-20T11:56:39.519Z,11.10
2018-12-20T12:01:34.327Z,10.80
2018-12-20T12:06:29.076Z,10.70
2018-12-20T12:11:23.791Z,10.70
2018-12-20T12:16:18.645Z,10.60
2018-12-20T12:21:13.331Z,10.70
2018-12-20T12:26:08.140Z,10.80
2018-12-20T12:31:03.013Z,10.80
2018-12-20T12:35:57.746Z,11.00
2018-12-20T12:40:52.427Z,11.20
2018-12-20T12:45:47.567Z,11.30
2018-12-20T12:50:42.504Z,11.50
2018-12-20T12:55:37.194Z,11.60
2018-12-20T13:00:31.856Z,11.70
2018-12-20T13:05:26.625Z,11.60
2018-12-20T13:10:21.370Z,11.60
2018-12-20T13:15:16.305Z,11.50
2018-12-20T13:20:11.817Z,11.40
2018-12-20T13:25:07.356Z,11.40
2018-12-20T13:30:02.054Z,11.30
2018-12-20T13:34:56.819Z,10.90
2018-12-20T13:39:51.466Z,10.90
2018-12-20T13:44:46.143Z,10.80
2018-12-20T13:49:40.839Z,10.70
2018-12-20T13:54:35.490Z,10.70
2018-12-20T13:59:30.192Z,10.70
2018-12-20T14:04:25.023Z,10.60
2018-12-20T14:09:19.949Z,10.60
2018-12-20T14:14:14.904Z,10.50
2018-12-20T14:19:09.577Z,10.50
2018-12-20T14:24:04.319Z,10.40
2018-12-20T14:28:59.018Z,10.30
2018-12-20T14:33:53.825Z,10.30
2018-12-20T14:38:48.622Z,10.20
2018-12-20T14:43:43.518Z,10.20
2018-12-20T14:48:39.464Z,10.10
2018-12-20T14:53:35.013Z,10.10
2018-12-20T14:58:30.634Z,10.00
2018-12-20T15:03:25.581Z,10.00
2018-12-20T15:08:20.356Z,9.90
2018-12-20T15:13:15.861Z,9.90
2018-12-20T15:18:10.784Z,9.90
2018-12-20T15:23:05.940Z,9.80
2018-12-20T15:28:01.264Z,9.80
2018-12-20T15:32:56.167Z,9.80
2018-12-20T15:37:52.397Z,9.80
2018-12-20T15:42:47.966Z,9.70
2018-12-20T15:47:42.920Z,9.70
2018-12-20T15:52:38.635Z,9.70
2018-12-20T15:57:33.480Z,9.70
2018-12-20T16:02:28.614Z,9.60
2018-12-20T16:07:23.770Z,9.60
2018-12-20T16:12:19.787Z,9.60
2018-12-20T16:17:16.968Z,9.60
2018-12-20T16:22:12.327Z,9.60
2018-12-20T16:27:07.701Z,9.50
2018-12-20T16:32:03.399Z,9.60
2018-12-20T16:36:58.910Z,9.60
2018-12-20T16:41:54.409Z,9.60
2018-12-20T16:46:50.257Z,9.60
2018-12-20T16:51:44.989Z,9.60
2018-12-20T16:56:39.737Z,9.60
2018-12-20T17:01:34.703Z,9.50
2018-12-20T17:06:32.149Z,9.50
2018-12-20T17:11:28.340Z,9.60
2018-12-20T17:16:23.786Z,9.60
2018-12-20T17:21:19.637Z,9.70
2018-12-20T17:26:14.806Z,9.70
2018-12-20T17:31:09.940Z,9.70
2018-12-20T17:36:05.069Z,9.60
2018-12-20T17:41:00.447Z,9.60
2018-12-20T17:45:56.129Z,9.60
2018-12-20T17:50:50.915Z,9.50
2018-12-20T17:55:45.864Z,9.50
2018-12-20T18:00:40.984Z,9.50
2018-12-20T18:05:36.333Z,9.50
2018-12-20T18:10:33.567Z,9.50
2018-12-20T18:15:30.840Z,9.50
2018-12-20T18:20:27.389Z,9.50
2018-12-20T18:25:29.946Z,9.50
2018-12-20T18:30:34.435Z,9.50
2018-12-20T18:35:45.745Z,9.40
2018-12-20T18:40:49.994Z,9.50
2018-12-20T18:45:46.331Z,9.50
2018-12-20T18:50:41.714Z,9.40
2018-12-20T18:55:39.095Z,9.50
2018-12-20T19:00:44.261Z,9.40
2018-12-20T19:05:40.864Z,9.40
2018-12-20T19:10:40.025Z,9.30
2018-12-20T19:15:37.271Z,9.20
2018-12-20T19:20:32.875Z,9.20
2018-12-20T19:25:27.854Z,9.10
2018-12-20T19:30:22.603Z,9.10
2018-12-20T19:35:17.318Z,9.10
2018-12-20T19:40:13.255Z,9.10
2018-12-20T19:45:07.949Z,9.10
2018-12-20T19:50:05.066Z,9.10
2018-12-20T19:54:59.359Z,9.10
2018-12-20T19:59:54.107Z,9.10
2018-12-20T20:04:48.770Z,9.10
2018-12-20T20:09:43.534Z,9.10
2018-12-20T20:14:38.218Z,9.10
2018-12-20T20:19:32.888Z,9.10
2018-12-20T20:24:27.643Z,9.10
2018-12-20T20:29:22.461Z,9.10
2018-12-20T20:34:17.308Z,9.10
2018-12-20T20:39:11.967Z,9.10
2018-12-20T20:44:06.691Z,9.10
2018-12-20T20:49:01.354Z,9.10
2018-12-20T20:53:56.056Z,9.10
2018-12-20T20:58:50.873Z,9.10
2018-12-20T21:03:45.534Z,9.10
2018-12-20T21:08:40.248Z,9.00
2018-12-20T21:13:34.922Z,9.00
2018-12-20T21:18:29.599Z,9.00
2018-12-20T21:23:24.283Z,9.00
2018-12-20T21:28:18.958Z,8.90
2018-12-20T21:33:13.607Z,8.90
2018-12-20T21:38:08.344Z,8.90
2018-12-20T21:43:02.986Z,9.00
2018-12-20T21:47:57.653Z,9.00
2018-12-20T21:52:52.661Z,9.00
2018-12-20T21:57:47.438Z,9.10
2018-12-20T22:02:42.089Z,9.10
2018-12-20T22:07:36.757Z,9.10
2018-12-20T22:12:31.431Z,9.10
2018-12-20T22:17:26.129Z,9.10
2018-12-20T22:22:20.801Z,9.10
2018-12-20T22:27:15.455Z,9.10
2018-12-20T22:32:10.128Z,9.10
2018-12-20T22:37:05.052Z,9.00
2018-12-20T22:41:59.716Z,9.00
2018-12-20T22:46:54.420Z,9.00
2018-12-20T22:51:49.142Z,9.10
2018-12-20T22:56:43.821Z,9.10
2018-12-20T23:01:38.469Z,9.10
2018-12-20T23:06:33.180Z,9.20
2018-12-20T23:11:27.881Z,9.20
2018-12-20T23:16:22.573Z,9.20
2018-12-20T23:21:17.348Z,9.20
2018-12-20T23:26:12.086Z,9.20
2018-12-20T23:31:06.729Z,9.20
2018-12-20T23:36:01.362Z,9.20
2018-12-20T23:40:56.103Z,9.20
2018-12-20T23:45:50.763Z,9.30
2018-12-20T23:50:45.441Z,9.30
2018-12-20T23:55:40.258Z,9.30
